createdAt,value
2018-05-16T00:00:31.897Z,11.70
2018-05-16T00:02:59.352Z,11.70
2018-05-16T00:05:26.806Z,11.70
2018-05-16T00:07:54.273Z,11.70
2018-05-16T00:10:22.491Z,11.60
2018-05-16T00:12:49.952Z,11.60
2018-05-16T00:15:17.408Z,11.60
2018-05-16T00:17:44.869Z,11.70
2018-05-16T00:20:12.953Z,11.60
2018-05-16T00:22:40.435Z,11.60
2018-05-16T00:25:08.415Z,11.60
2018-05-16T00:27:35.881Z,11.60
2018-05-16T00:30:04.104Z,11.60
2018-05-16T00:32:31.568Z,11.60
2018-05-16T00:34:59.034Z,11.60
2018-05-16T00:37:26.493Z,11.60
2018-05-16T00:39:54.568Z,11.60
2018-05-16T00:42:22.029Z,11.60
2018-05-16T00:44:49.492Z,11.60
2018-05-16T00:47:17.374Z,11.60
2018-05-16T00:49:45.600Z,11.60
2018-05-16T00:52:13.061Z,11.60
2018-05-16T00:54:41.100Z,11.50
2018-05-16T00:57:08.560Z,11.50
2018-05-16T00:59:36.015Z,11.50
2018-05-16T01:02:03.468Z,11.50
2018-05-16T01:04:30.927Z,11.40
2018-05-16T01:06:58.382Z,11.40
2018-05-16T01:09:25.841Z,11.30
2018-05-16T01:11:54.071Z,11.30
2018-05-16T01:14:22.654Z,11.30
2018-05-16T01:16:50.122Z,11.30
2018-05-16T01:19:17.991Z,11.30
2018-05-16T01:21:45.456Z,11.30
2018-05-16T01:24:12.917Z,11.40
2018-05-16T01:26:41.142Z,11.40
2018-05-16T01:29:09.796Z,11.40
2018-05-16T01:31:37.903Z,11.40
2018-05-16T01:34:05.372Z,11.40
2018-05-16T01:36:32.840Z,11.40
2018-05-16T01:39:00.299Z,11.40
2018-05-16T01:41:27.763Z,11.30
2018-05-16T01:43:55.216Z,11.30
2018-05-16T01:46:22.686Z,11.30
2018-05-16T01:51:54.360Z,11.30
2018-05-16T01:54:21.820Z,11.30
2018-05-16T01:56:49.864Z,11.30
2018-05-16T01:59:17.930Z,11.30
2018-05-16T02:01:45.404Z,11.30
2018-05-16T02:04:12.860Z,11.30
2018-05-16T02:06:40.331Z,11.40
2018-05-16T02:09:07.788Z,11.40
2018-05-16T02:11:36.847Z,11.30
2018-05-16T02:14:04.676Z,11.30
2018-05-16T02:16:32.894Z,11.40
2018-05-16T02:19:00.359Z,11.30
2018-05-16T02:21:28.581Z,11.40
2018-05-16T02:23:56.114Z,11.30
2018-05-16T02:26:23.521Z,11.30
2018-05-16T02:28:50.972Z,11.30
2018-05-16T02:31:18.437Z,11.30
2018-05-16T02:33:45.893Z,11.30
2018-05-16T02:36:13.352Z,11.20
2018-05-16T02:38:40.804Z,11.30
2018-05-16T02:41:08.724Z,11.20
2018-05-16T02:43:36.191Z,11.20
2018-05-16T02:46:04.409Z,11.20
2018-05-16T02:48:31.864Z,11.20
2018-05-16T02:50:59.341Z,11.20
2018-05-16T02:53:26.796Z,11.20
2018-05-16T02:55:54.256Z,11.20
2018-05-16T02:58:22.429Z,11.20
2018-05-16T03:00:49.895Z,11.20
2018-05-16T03:03:17.357Z,11.20
2018-05-16T03:05:45.697Z,11.20
2018-05-16T03:08:13.158Z,11.20
2018-05-16T03:10:40.620Z,11.20
2018-05-16T03:13:08.090Z,11.20
2018-05-16T03:15:36.084Z,11.20
2018-05-16T03:18:03.547Z,11.20
2018-05-16T03:20:31.008Z,11.30
2018-05-16T03:22:59.227Z,11.20
2018-05-16T03:25:26.697Z,11.20
2018-05-16T03:27:54.361Z,11.30
2018-05-16T03:30:21.852Z,11.30
2018-05-16T03:32:49.308Z,11.30
2018-05-16T03:35:17.212Z,11.20
2018-05-16T03:37:44.678Z,11.30
2018-05-16T03:40:12.135Z,11.30
2018-05-16T03:42:39.595Z,11.30
2018-05-16T03:45:07.058Z,11.30
2018-05-16T03:47:35.747Z,11.40
2018-05-16T03:50:03.213Z,11.40
2018-05-16T03:52:30.675Z,11.40
2018-05-16T03:54:58.169Z,11.40
2018-05-16T03:57:38.712Z,11.50
2018-05-16T04:00:17.984Z,11.40
2018-05-16T04:02:57.488Z,11.40
2018-05-16T04:05:25.920Z,11.30
2018-05-16T04:07:53.367Z,11.30
2018-05-16T04:10:20.828Z,11.30
2018-05-16T04:12:48.323Z,11.40
2018-05-16T04:15:15.813Z,11.40
2018-05-16T04:17:43.279Z,11.50
2018-05-16T04:20:11.497Z,11.50
2018-05-16T04:22:38.963Z,11.50
2018-05-16T04:25:06.422Z,11.50
2018-05-16T04:27:33.883Z,11.50
2018-05-16T04:30:01.348Z,11.60
2018-05-16T04:32:28.833Z,11.60
2018-05-16T04:34:57.052Z,11.60
2018-05-16T04:37:24.525Z,11.60
2018-05-16T04:39:51.983Z,11.70
2018-05-16T04:42:19.521Z,11.70
2018-05-16T04:44:46.980Z,11.80
2018-05-16T04:49:48.388Z,12.00
2018-05-16T04:52:15.839Z,12.00
2018-05-16T04:54:43.304Z,12.10
2018-05-16T04:57:10.799Z,12.20
2018-05-16T04:59:39.019Z,12.70
2018-05-16T05:02:06.480Z,12.70
2018-05-16T05:04:33.946Z,12.90
2018-05-16T05:07:01.401Z,13.50
2018-05-16T05:09:28.861Z,14.20
2018-05-16T05:11:56.835Z,14.20
2018-05-16T05:14:25.036Z,14.10
2018-05-16T05:16:53.310Z,14.60
2018-05-16T05:19:21.524Z,15.70
2018-05-16T05:21:49.000Z,15.60
2018-05-16T05:24:17.027Z,16.50
2018-05-16T05:26:44.500Z,16.50
2018-05-16T05:29:11.962Z,16.20
2018-05-16T05:31:39.436Z,16.50
2018-05-16T05:34:06.896Z,16.40
2018-05-16T05:36:34.367Z,16.00
2018-05-16T05:39:02.616Z,15.70
2018-05-16T05:41:30.623Z,15.40
2018-05-16T05:43:58.082Z,15.20
2018-05-16T05:46:25.525Z,15.20
2018-05-16T05:48:53.109Z,15.60
2018-05-16T05:51:21.329Z,18.00
2018-05-16T05:53:48.793Z,17.90
2018-05-16T05:56:16.754Z,19.40
2018-05-16T05:58:44.213Z,20.00
2018-05-16T06:01:11.661Z,20.20
2018-05-16T06:03:39.122Z,19.20
2018-05-16T06:06:06.595Z,18.10
2018-05-16T06:08:34.068Z,17.40
2018-05-16T06:11:03.537Z,16.70
2018-05-16T06:13:33.579Z,16.20
2018-05-16T06:16:01.817Z,15.30
2018-05-16T06:18:29.292Z,15.30
2018-05-16T06:20:56.745Z,15.10
2018-05-16T06:23:24.204Z,15.10
2018-05-16T06:25:51.662Z,15.20
2018-05-16T06:28:19.117Z,15.20
2018-05-16T06:30:46.572Z,15.30
2018-05-16T06:33:14.049Z,15.50
2018-05-16T06:35:41.505Z,15.60
2018-05-16T06:38:08.969Z,15.60
2018-05-16T06:40:36.460Z,15.30
2018-05-16T06:43:04.685Z,15.10
2018-05-16T06:45:32.135Z,15.00
2018-05-16T06:47:59.593Z,15.30
2018-05-16T06:50:27.071Z,15.50
2018-05-16T06:52:54.529Z,16.10
2018-05-16T06:55:21.976Z,16.50
2018-05-16T06:57:50.003Z,16.70
2018-05-16T07:00:17.467Z,16.80
2018-05-16T07:02:44.954Z,17.00
2018-05-16T07:05:12.504Z,17.20
2018-05-16T07:07:39.973Z,17.50
2018-05-16T07:10:08.208Z,18.40
2018-05-16T07:12:36.685Z,18.80
2018-05-16T07:15:04.911Z,19.10
2018-05-16T07:17:32.363Z,19.10
2018-05-16T07:19:59.843Z,19.80
2018-05-16T07:22:27.327Z,20.10
2018-05-16T07:25:02.287Z,20.30
2018-05-16T07:27:29.755Z,20.20
2018-05-16T07:29:57.287Z,20.00
2018-05-16T07:32:25.577Z,21.80
2018-05-16T07:34:53.049Z,21.70
2018-05-16T07:37:20.528Z,22.90
2018-05-16T07:39:48.009Z,22.90
2018-05-16T07:42:15.465Z,23.50
2018-05-16T07:44:42.929Z,23.30
2018-05-16T07:47:10.482Z,22.80
2018-05-16T07:49:37.887Z,22.20
2018-05-16T07:52:05.381Z,22.10
2018-05-16T07:54:32.841Z,21.80
2018-05-16T07:57:00.321Z,21.00
2018-05-16T07:59:28.539Z,19.10
2018-05-16T08:01:56.004Z,19.10
2018-05-16T08:04:23.460Z,18.30
2018-05-16T08:06:53.420Z,17.70
2018-05-16T08:09:20.896Z,17.50
2018-05-16T08:11:49.125Z,18.50
2018-05-16T08:14:16.593Z,18.50
2018-05-16T08:16:44.053Z,19.60
2018-05-16T08:19:11.527Z,20.20
2018-05-16T08:21:38.986Z,20.60
2018-05-16T08:24:07.218Z,21.90
2018-05-16T08:26:34.684Z,21.90
2018-05-16T08:29:03.145Z,21.60
2018-05-16T08:31:30.632Z,22.10
2018-05-16T08:33:58.099Z,22.80
2018-05-16T08:36:26.830Z,22.70
2018-05-16T08:38:54.316Z,22.30
2018-05-16T08:41:21.771Z,22.30
2018-05-16T08:43:49.236Z,22.50
2018-05-16T08:46:16.700Z,23.00
2018-05-16T08:48:44.222Z,23.30
2018-05-16T08:51:11.723Z,22.70
2018-05-16T08:53:39.184Z,22.30
2018-05-16T08:56:06.679Z,21.80
2018-05-16T08:58:34.911Z,21.20
2018-05-16T09:01:02.364Z,21.20
2018-05-16T09:03:29.833Z,21.70
2018-05-16T09:05:57.298Z,21.70
2018-05-16T09:08:24.772Z,21.20
2018-05-16T09:10:53.476Z,20.40
2018-05-16T09:13:21.877Z,20.30
2018-05-16T09:15:49.330Z,21.00
2018-05-16T09:18:16.781Z,22.50
2018-05-16T09:20:44.273Z,22.70
2018-05-16T09:23:11.716Z,23.20
2018-05-16T09:25:39.197Z,23.30
2018-05-16T09:28:07.330Z,24.10
2018-05-16T09:30:35.516Z,25.10
2018-05-16T09:33:03.001Z,25.00
2018-05-16T09:35:30.483Z,24.70
2018-05-16T09:37:58.709Z,24.50
2018-05-16T09:40:26.700Z,24.50
2018-05-16T09:42:54.853Z,24.60
2018-05-16T09:45:23.745Z,25.50
2018-05-16T09:47:51.199Z,25.50
2018-05-16T09:50:19.549Z,24.20
2018-05-16T09:52:46.999Z,24.10
2018-05-16T09:55:14.456Z,23.30
2018-05-16T09:57:41.915Z,22.90
2018-05-16T10:00:09.360Z,23.30
2018-05-16T10:02:37.592Z,22.30
2018-05-16T10:05:08.301Z,22.30
2018-05-16T10:07:35.755Z,22.40
2018-05-16T10:10:03.828Z,22.50
2018-05-16T10:12:33.525Z,22.30
2018-05-16T10:15:02.120Z,22.20
2018-05-16T10:17:29.571Z,22.30
2018-05-16T10:19:57.031Z,22.30
2018-05-16T10:22:24.488Z,22.20
2018-05-16T10:24:52.046Z,21.70
2018-05-16T10:27:19.544Z,21.90
2018-05-16T10:29:46.991Z,22.10
2018-05-16T10:32:14.556Z,22.00
2018-05-16T10:34:42.437Z,21.90
2018-05-16T10:37:10.630Z,21.50
2018-05-16T10:39:38.856Z,21.60
2018-05-16T10:42:06.360Z,21.60
2018-05-16T10:44:34.607Z,23.00
2018-05-16T10:47:03.840Z,23.00
2018-05-16T10:49:32.225Z,23.60
2018-05-16T10:52:00.439Z,23.30
2018-05-16T10:54:27.923Z,23.30
2018-05-16T10:56:56.798Z,22.90
2018-05-16T10:59:24.531Z,22.40
2018-05-16T11:01:52.027Z,21.90
2018-05-16T11:04:19.800Z,22.00
2018-05-16T11:06:47.248Z,22.80
2018-05-16T11:09:16.221Z,23.50
2018-05-16T11:11:45.119Z,23.50
2018-05-16T11:14:12.576Z,23.90
2018-05-16T11:16:40.478Z,24.30
2018-05-16T11:19:08.008Z,24.20
2018-05-16T11:21:35.582Z,24.40
2018-05-16T11:24:03.031Z,23.80
2018-05-16T11:26:30.483Z,23.70
2018-05-16T11:28:57.944Z,23.40
2018-05-16T11:31:25.404Z,23.20
2018-05-16T11:33:53.648Z,24.10
2018-05-16T11:36:21.140Z,24.00
2018-05-16T11:38:48.691Z,25.20
2018-05-16T11:41:16.151Z,26.00
2018-05-16T11:43:43.997Z,26.30
2018-05-16T11:46:11.768Z,26.40
2018-05-16T11:48:39.229Z,26.00
2018-05-16T11:51:07.479Z,25.10
2018-05-16T11:53:35.529Z,25.90
2018-05-16T11:56:03.048Z,25.90
2018-05-16T11:58:30.566Z,26.60
2018-05-16T12:00:58.157Z,26.60
2018-05-16T12:03:25.613Z,26.20
2018-05-16T12:05:53.060Z,25.40
2018-05-16T12:08:20.537Z,25.00
2018-05-16T12:10:47.996Z,24.40
2018-05-16T12:13:15.563Z,23.80
2018-05-16T12:15:43.218Z,23.20
2018-05-16T12:18:10.691Z,23.20
2018-05-16T12:20:38.917Z,23.60
2018-05-16T12:23:06.379Z,23.60
2018-05-16T12:25:33.820Z,23.60
2018-05-16T12:28:01.332Z,23.50
2018-05-16T12:30:28.888Z,24.20
2018-05-16T12:32:56.336Z,24.90
2018-05-16T12:35:23.792Z,25.20
2018-05-16T12:37:51.250Z,25.80
2018-05-16T12:40:19.131Z,26.20
2018-05-16T12:42:59.437Z,26.30
2018-05-16T12:45:27.522Z,26.30
2018-05-16T12:47:54.975Z,26.10
2018-05-16T12:50:22.468Z,25.50
2018-05-16T12:52:49.908Z,25.30
2018-05-16T12:55:17.599Z,25.50
2018-05-16T12:57:45.145Z,24.80
2018-05-16T13:00:13.017Z,24.60
2018-05-16T13:02:40.485Z,24.70
2018-05-16T13:05:07.923Z,24.90
2018-05-16T13:07:35.394Z,25.20
2018-05-16T13:10:02.848Z,25.40
2018-05-16T13:12:30.296Z,25.80
2018-05-16T13:14:57.745Z,25.60
2018-05-16T13:17:25.208Z,25.40
2018-05-16T13:19:52.660Z,25.40
2018-05-16T13:22:20.564Z,25.10
2018-05-16T13:24:48.775Z,24.10
2018-05-16T13:27:16.232Z,24.10
2018-05-16T13:29:43.697Z,23.80
2018-05-16T13:32:11.145Z,23.90
2018-05-16T13:34:38.617Z,23.90
2018-05-16T13:37:06.068Z,24.30
2018-05-16T13:39:33.524Z,24.40
2018-05-16T13:42:00.994Z,24.20
2018-05-16T13:44:28.479Z,24.20
2018-05-16T13:46:56.782Z,24.50
2018-05-16T13:49:24.459Z,25.00
2018-05-16T13:51:51.916Z,25.50
2018-05-16T13:54:19.373Z,26.40
2018-05-16T13:56:48.117Z,25.90
2018-05-16T13:59:15.569Z,25.50
2018-05-16T14:01:43.547Z,25.00
2018-05-16T14:04:10.944Z,24.80
2018-05-16T14:06:38.452Z,25.40
2018-05-16T14:09:05.912Z,25.90
2018-05-16T14:11:33.361Z,26.80
2018-05-16T14:14:00.826Z,27.30
2018-05-16T14:16:29.087Z,27.50
2018-05-16T14:18:56.567Z,28.60
2018-05-16T14:21:24.792Z,29.40
2018-05-16T14:23:52.319Z,29.40
2018-05-16T14:26:19.720Z,28.40
2018-05-16T14:28:49.109Z,27.40
2018-05-16T14:31:17.010Z,26.10
2018-05-16T14:33:44.476Z,24.90
2018-05-16T14:36:11.933Z,24.20
2018-05-16T14:38:39.392Z,23.70
2018-05-16T14:41:06.846Z,23.90
2018-05-16T14:43:34.320Z,25.00
2018-05-16T14:46:02.540Z,24.70
2018-05-16T14:48:30.019Z,24.70
2018-05-16T14:50:57.541Z,24.00
2018-05-16T14:53:24.991Z,23.20
2018-05-16T14:55:52.440Z,22.20
2018-05-16T14:58:20.608Z,21.20
2018-05-16T15:00:48.493Z,19.90
2018-05-16T15:03:15.943Z,18.80
2018-05-16T15:05:43.411Z,18.10
2018-05-16T15:08:10.896Z,17.60
2018-05-16T15:10:38.358Z,17.50
2018-05-16T15:13:06.574Z,17.70
2018-05-16T15:15:34.816Z,18.00
2018-05-16T15:18:02.326Z,18.00
2018-05-16T15:20:31.629Z,18.40
2018-05-16T15:22:59.548Z,19.30
2018-05-16T15:25:27.000Z,21.10
2018-05-16T15:27:54.462Z,23.00
2018-05-16T15:30:24.468Z,24.70
2018-05-16T15:32:51.933Z,25.90
2018-05-16T15:35:20.189Z,25.40
2018-05-16T15:37:47.635Z,24.20
2018-05-16T15:40:15.308Z,23.90
2018-05-16T15:42:43.198Z,23.80
2018-05-16T15:45:10.671Z,23.20
2018-05-16T15:47:38.504Z,23.00
2018-05-16T15:50:05.999Z,22.40
2018-05-16T15:52:34.640Z,22.70
2018-05-16T15:55:02.113Z,22.70
2018-05-16T15:57:29.957Z,23.00
2018-05-16T15:59:57.819Z,23.30
2018-05-16T16:02:25.280Z,23.70
2018-05-16T16:04:53.507Z,24.80
2018-05-16T16:07:23.210Z,25.20
2018-05-16T16:09:52.132Z,26.20
2018-05-16T16:12:19.576Z,26.20
2018-05-16T16:14:47.040Z,26.40
2018-05-16T16:17:14.512Z,26.60
2018-05-16T16:19:41.966Z,27.10
2018-05-16T16:22:09.425Z,26.30
2018-05-16T16:24:36.884Z,25.90
2018-05-16T16:27:04.349Z,26.00
2018-05-16T16:29:31.800Z,25.40
2018-05-16T16:31:59.289Z,24.70
2018-05-16T16:34:27.169Z,24.00
2018-05-16T16:36:54.656Z,23.50
2018-05-16T16:39:22.895Z,22.10
2018-05-16T16:41:50.788Z,22.10
2018-05-16T16:44:19.162Z,21.30
2018-05-16T16:46:47.383Z,21.00
2018-05-16T16:49:14.836Z,21.00
2018-05-16T16:51:43.055Z,20.90
2018-05-16T16:54:10.500Z,20.70
2018-05-16T16:56:37.988Z,20.50
2018-05-16T16:59:06.216Z,20.00
2018-05-16T17:01:33.672Z,19.90
2018-05-16T17:04:01.565Z,19.80
2018-05-16T17:06:29.012Z,19.90
2018-05-16T17:08:56.921Z,21.00
2018-05-16T17:11:24.457Z,22.30
2018-05-16T17:13:53.179Z,23.00
2018-05-16T17:16:20.717Z,22.80
2018-05-16T17:18:48.489Z,22.00
2018-05-16T17:21:17.235Z,20.90
2018-05-16T17:23:44.682Z,20.90
2018-05-16T17:26:12.139Z,20.60
2018-05-16T17:28:40.155Z,20.40
2018-05-16T17:31:08.379Z,19.90
2018-05-16T17:33:38.211Z,19.80
2018-05-16T17:36:05.952Z,19.80
2018-05-16T17:38:33.815Z,19.70
2018-05-16T17:41:01.276Z,19.60
2018-05-16T17:43:29.184Z,19.60
2018-05-16T17:45:57.438Z,19.50
2018-05-16T17:48:24.874Z,19.50
2018-05-16T17:50:53.233Z,19.30
2018-05-16T17:53:20.969Z,19.10
2018-05-16T17:55:49.175Z,18.90
2018-05-16T17:58:17.248Z,18.80
2018-05-16T18:00:44.704Z,18.70
2018-05-16T18:03:12.159Z,18.60
2018-05-16T18:05:39.606Z,18.50
2018-05-16T18:08:07.427Z,18.40
2018-05-16T18:10:35.412Z,18.20
2018-05-16T18:16:29.835Z,18.10
2018-05-16T18:18:58.071Z,18.00
2018-05-16T18:21:25.958Z,18.00
2018-05-16T18:23:53.417Z,17.90
2018-05-16T18:26:21.649Z,17.70
2018-05-16T18:28:49.113Z,17.70
2018-05-16T18:31:16.572Z,17.60
2018-05-16T18:33:44.038Z,17.60
2018-05-16T18:36:12.063Z,17.50
2018-05-16T18:38:40.302Z,17.30
2018-05-16T18:41:07.761Z,17.30
2018-05-16T18:43:35.234Z,17.20
2018-05-16T18:46:04.084Z,16.80
2018-05-16T18:48:32.136Z,16.80
2018-05-16T18:50:59.597Z,16.70
2018-05-16T18:53:27.076Z,16.60
2018-05-16T18:55:54.961Z,16.50
2018-05-16T18:58:22.417Z,16.40
2018-05-16T19:00:49.871Z,16.20
2018-05-16T19:03:19.817Z,16.10
2018-05-16T19:05:47.387Z,16.00
2018-05-16T19:08:14.757Z,15.90
2018-05-16T19:10:42.272Z,15.90
2018-05-16T19:13:09.736Z,15.90
2018-05-16T19:15:37.977Z,15.70
2018-05-16T19:18:05.413Z,15.70
2018-05-16T19:20:32.880Z,15.60
2018-05-16T19:23:00.362Z,15.50
2018-05-16T19:25:28.090Z,15.50
2018-05-16T19:27:55.641Z,15.40
2018-05-16T19:30:23.093Z,15.20
2018-05-16T19:32:50.667Z,15.10
2018-05-16T19:35:18.055Z,15.00
2018-05-16T19:37:46.645Z,14.90
2018-05-16T19:40:14.093Z,14.70
2018-05-16T19:42:41.574Z,14.60
2018-05-16T19:45:10.380Z,14.50
2018-05-16T19:47:39.465Z,14.50
2018-05-16T19:50:07.693Z,14.40
2018-05-16T19:52:35.155Z,14.40
2018-05-16T19:55:02.618Z,14.50
2018-05-16T19:57:30.072Z,14.50
2018-05-16T19:59:57.519Z,14.60
2018-05-16T20:02:24.996Z,14.60
2018-05-16T20:04:52.892Z,14.50
2018-05-16T20:07:21.789Z,14.40
2018-05-16T20:09:50.033Z,14.40
2018-05-16T20:12:20.659Z,14.40
2018-05-16T20:14:48.220Z,14.50
2018-05-16T20:17:15.576Z,14.50
2018-05-16T20:19:43.033Z,14.50
2018-05-16T20:22:10.507Z,14.40
2018-05-16T20:24:38.732Z,14.50
2018-05-16T20:27:06.206Z,14.40
2018-05-16T20:29:33.679Z,14.40
2018-05-16T20:32:01.130Z,14.40
2018-05-16T20:34:28.583Z,14.40
2018-05-16T20:36:56.049Z,14.40
2018-05-16T20:39:23.503Z,14.50
2018-05-16T20:41:51.005Z,14.50
2018-05-16T20:44:18.927Z,14.60
2018-05-16T20:46:46.396Z,14.80
2018-05-16T20:49:14.243Z,14.90
2018-05-16T20:51:42.015Z,14.90
2018-05-16T20:54:09.468Z,14.90
2018-05-16T20:56:36.927Z,15.00
2018-05-16T20:59:04.599Z,14.90
2018-05-16T21:01:32.112Z,14.90
2018-05-16T21:04:00.166Z,14.90
2018-05-16T21:06:28.634Z,14.90
2018-05-16T21:08:56.848Z,14.90
2018-05-16T21:11:26.156Z,14.90
2018-05-16T21:13:53.621Z,15.00
2018-05-16T21:16:21.072Z,15.00
2018-05-16T21:18:48.552Z,15.00
2018-05-16T21:21:16.004Z,15.10
2018-05-16T21:23:43.455Z,15.00
2018-05-16T21:26:10.914Z,15.00
2018-05-16T21:28:38.468Z,15.10
2018-05-16T21:31:06.624Z,15.20
2018-05-16T21:33:34.078Z,15.10
2018-05-16T21:36:02.533Z,15.20
2018-05-16T21:38:29.997Z,15.20
2018-05-16T21:40:57.443Z,15.20
2018-05-16T21:43:24.900Z,15.20
2018-05-16T21:45:52.358Z,15.30
2018-05-16T21:48:20.575Z,15.30
2018-05-16T21:50:48.436Z,15.30
2018-05-16T21:53:16.615Z,15.30
2018-05-16T21:55:44.073Z,15.40
2018-05-16T21:58:11.527Z,15.40
2018-05-16T22:00:39.754Z,15.40
2018-05-16T22:03:07.975Z,15.40
2018-05-16T22:05:35.436Z,15.40
2018-05-16T22:08:03.936Z,15.40
2018-05-16T22:10:31.437Z,15.40
2018-05-16T22:12:58.871Z,15.30
2018-05-16T22:15:27.113Z,15.20
2018-05-16T22:17:54.563Z,15.10
2018-05-16T22:20:22.042Z,15.10
2018-05-16T22:22:49.520Z,14.90
2018-05-16T22:25:16.962Z,14.80
2018-05-16T22:27:44.418Z,14.60
2018-05-16T22:30:11.379Z,14.50
2018-05-16T22:32:45.388Z,14.30
2018-05-16T22:35:19.320Z,14.20
2018-05-16T22:37:53.504Z,14.20
2018-05-16T22:40:27.333Z,14.10
2018-05-16T22:42:55.074Z,13.90
2018-05-16T22:48:27.334Z,13.80
2018-05-16T22:50:54.779Z,13.80
2018-05-16T22:53:22.261Z,13.80
2018-05-16T22:55:49.716Z,13.80
2018-05-16T22:58:17.169Z,13.70
2018-05-16T23:00:44.647Z,13.70
2018-05-16T23:03:12.099Z,13.70
2018-05-16T23:05:39.554Z,13.50
2018-05-16T23:08:07.015Z,13.40
2018-05-16T23:10:34.480Z,13.30
2018-05-16T23:13:01.939Z,13.30
2018-05-16T23:15:29.404Z,13.40
2018-05-16T23:17:57.626Z,13.30
2018-05-16T23:20:25.064Z,13.30
2018-05-16T23:22:52.529Z,13.30
2018-05-16T23:25:19.980Z,13.40
2018-05-16T23:27:47.444Z,13.30
2018-05-16T23:30:14.896Z,13.30
2018-05-16T23:32:42.367Z,13.30
2018-05-16T23:35:09.822Z,13.20
2018-05-16T23:37:37.289Z,13.20
2018-05-16T23:40:04.749Z,13.20
2018-05-16T23:42:32.209Z,13.20
2018-05-16T23:44:59.788Z,13.30
2018-05-16T23:47:27.258Z,13.30
2018-05-16T23:49:55.487Z,13.30
2018-05-16T23:52:24.267Z,13.30
2018-05-16T23:54:52.147Z,13.30
2018-05-16T23:57:19.609Z,13.20
2018-05-16T23:59:47.355Z,13.20
